Time;durP1;ratioP1;P1;durP2;ratioP2;P2;SDS_P1;SDS_P2;PMS_P1;PMS_P2;Temp;Humidity;BMP_temperature;BMP_pressure;BME280_temperature;BME280_humidity;BME280_pressure;Samples;Min_cycle;Max_cycle;Signal;HPM_P1;HPM_P2
2022/01/19 00:00:33;;;;;;;16.13;8.60;;;5.40;99.90;;;;;;5053209;28;20209;-44
2022/01/19 00:03:00;;;;;;;18.53;9.63;;;5.40;99.90;;;;;;5043004;28;20202;-43
2022/01/19 00:05:27;;;;;;;14.77;9.07;;;5.40;99.90;;;;;;5051593;28;20238;-42
2022/01/19 00:07:55;;;;;;;14.97;8.80;;;5.40;99.90;;;;;;5043015;28;20202;-46
2022/01/19 00:10:27;;;;;;;18.07;9.27;;;5.40;99.90;;;;;;5061164;28;20532;-45
2022/01/19 00:12:56;;;;;;;13.80;8.30;;;5.40;99.90;;;;;;5058336;28;20194;-42
2022/01/19 00:15:24;;;;;;;19.53;8.87;;;5.30;99.90;;;;;;5065057;28;20225;-45
2022/01/19 00:17:54;;;;;;;14.17;8.07;;;5.30;99.90;;;;;;5054974;28;20190;-42
2022/01/19 00:20:22;;;;;;;15.60;8.10;;;5.30;99.90;;;;;;5046522;28;20691;-47
2022/01/19 00:22:50;;;;;;;19.53;9.47;;;5.30;99.90;;;;;;5037803;28;20207;-43
2022/01/19 00:25:18;;;;;;;18.30;11.00;;;5.30;99.90;;;;;;5059839;28;20227;-44
2022/01/19 00:27:46;;;;;;;17.67;11.00;;;5.30;99.90;;;;;;5055447;28;20206;-44
2022/01/19 00:30:14;;;;;;;22.10;11.43;;;5.30;99.90;;;;;;5046395;28;20200;-45
2022/01/19 00:32:41;;;;;;;17.70;9.90;;;5.30;99.90;;;;;;5057118;28;20217;-42
2022/01/19 00:35:09;;;;;;;16.67;9.03;;;5.30;99.90;;;;;;5052017;28;20704;-44
2022/01/19 00:37:38;;;;;;;14.30;8.90;;;5.20;99.90;;;;;;5043209;28;20344;-42
2022/01/19 00:40:07;;;;;;;16.90;9.97;;;5.20;99.90;;;;;;5043608;28;20222;-43
2022/01/19 00:42:34;;;;;;;15.43;9.93;;;5.20;99.90;;;;;;5051016;28;20190;-43
2022/01/19 00:45:03;;;;;;;17.70;9.17;;;5.10;99.90;;;;;;5053571;28;21033;-43
2022/01/19 00:47:31;;;;;;;14.00;9.30;;;5.10;99.90;;;;;;5057751;28;20211;-43
2022/01/19 00:49:57;;;;;;;14.47;8.57;;;5.10;99.90;;;;;;5046609;28;20847;-42
2022/01/19 00:52:24;;;;;;;16.03;8.33;;;5.10;99.90;;;;;;5045976;28;20204;-45
2022/01/19 00:54:51;;;;;;;16.63;8.90;;;5.10;99.90;;;;;;5037069;28;20311;-46
2022/01/19 00:57:18;;;;;;;20.00;9.33;;;5.10;99.90;;;;;;5059423;28;20198;-43
2022/01/19 00:59:45;;;;;;;13.77;8.77;;;5.10;99.90;;;;;;5059965;28;20685;-45
2022/01/19 01:02:13;;;;;;;17.73;9.50;;;5.10;99.90;;;;;;5049740;28;20655;-44
2022/01/19 01:04:41;;;;;;;20.13;9.73;;;5.00;99.90;;;;;;5055918;28;20227;-46
2022/01/19 01:07:08;;;;;;;14.80;9.30;;;5.00;99.90;;;;;;5063077;28;20206;-43
2022/01/19 01:09:35;;;;;;;22.67;10.33;;;5.00;99.90;;;;;;5043198;28;20215;-42
2022/01/19 01:12:10;;;;;;;17.23;9.90;;;5.00;99.90;;;;;;5050637;28;20192;-47
2022/01/19 01:20:12;;;;;;;15.10;9.70;;;4.90;99.90;;;;;;5062277;28;20693;-45
2022/01/19 01:22:40;;;;;;;17.67;8.77;;;4.90;99.90;;;;;;5041843;28;20209;-43
2022/01/19 01:25:08;;;;;;;16.13;9.50;;;4.90;99.90;;;;;;5040522;28;20668;-46
2022/01/19 01:27:35;;;;;;;19.60;11.23;;;4.90;99.90;;;;;;5055352;28;20229;-44
2022/01/19 01:30:02;;;;;;;16.67;9.77;;;4.90;99.90;;;;;;5055178;28;20214;-43
2022/01/19 01:32:29;;;;;;;18.00;10.37;;;4.90;99.90;;;;;;5048650;28;20298;-44
2022/01/19 01:34:56;;;;;;;18.57;9.57;;;4.90;99.90;;;;;;5047824;28;20223;-44
2022/01/19 01:37:24;;;;;;;17.13;9.27;;;4.90;99.90;;;;;;5051509;28;20207;-42
2022/01/19 01:39:51;;;;;;;19.03;9.60;;;4.90;99.90;;;;;;5059388;28;20286;-43
2022/01/19 01:42:20;;;;;;;16.33;9.07;;;4.80;99.90;;;;;;5045803;28;20230;-47
2022/01/19 01:44:51;;;;;;;15.30;9.63;;;4.80;99.90;;;;;;5045724;28;20215;-47
2022/01/19 01:47:20;;;;;;;15.73;9.37;;;4.80;99.90;;;;;;5043672;28;20203;-42
2022/01/19 01:53:26;;;;;;;15.57;9.27;;;4.80;99.90;;;;;;5054967;28;20852;-43
2022/01/19 01:55:32;;;;;;;23.50;10.80;;;4.80;99.90;;;;;;5015839;28;20230;-44
2022/01/19 01:57:59;;;;;;;19.93;11.57;;;4.80;99.90;;;;;;5044446;28;20203;-43
2022/01/19 02:00:28;;;;;;;20.93;13.13;;;4.80;99.90;;;;;;5048681;28;20355;-48
2022/01/19 02:02:56;;;;;;;26.10;15.53;;;4.80;99.90;;;;;;5047398;28;20210;-46
2022/01/19 02:05:25;;;;;;;28.50;15.63;;;4.80;99.90;;;;;;5057757;28;20222;-43
2022/01/19 02:08:06;;;;;;;25.97;16.63;;;4.80;99.90;;;;;;5046831;28;20203;-43
2022/01/19 02:10:44;;;;;;;31.33;18.23;;;4.80;99.90;;;;;;5052113;28;20222;-44
2022/01/19 02:16:16;;;;;;;30.97;16.57;;;4.80;99.90;;;;;;5053367;28;20206;-47
2022/01/19 02:21:56;;;;;;;30.93;15.37;;;4.80;99.90;;;;;;5041509;28;20223;-45
2022/01/19 02:24:28;;;;;;;32.30;16.17;;;4.80;99.90;;;;;;5056036;28;20232;-43
2022/01/19 02:27:04;;;;;;;25.10;15.27;;;4.80;99.90;;;;;;5047487;28;20210;-44
2022/01/19 02:30:20;;;;;;;25.93;15.20;;;4.70;99.90;;;;;;5044245;28;20228;-47
2022/01/19 02:40:52;;;;;;;29.33;15.77;;;4.60;99.90;;;;;;5044732;28;20206;-48
2022/01/19 02:43:23;;;;;;;32.00;17.17;;;4.60;99.90;;;;;;5041384;28;20282;-42
2022/01/19 02:51:20;;;;;;;41.07;18.70;;;4.60;99.90;;;;;;5053940;28;20292;-46
2022/01/19 02:53:48;;;;;;;36.30;19.53;;;4.60;99.90;;;;;;5047974;28;20912;-45
2022/01/19 02:56:22;;;;;;;41.70;20.87;;;4.60;99.90;;;;;;5042276;28;20242;-44
2022/01/19 02:58:53;;;;;;;40.83;18.73;;;4.60;99.90;;;;;;5029933;28;21712;-44
2022/01/19 03:09:35;;;;;;;30.83;15.90;;;4.40;99.90;;;;;;5052588;28;20313;-44
2022/01/19 03:12:02;;;;;;;33.93;17.27;;;4.40;99.90;;;;;;5055331;28;20503;-48
2022/01/19 03:14:29;;;;;;;36.17;17.20;;;4.40;99.90;;;;;;5056838;28;20306;-42
2022/01/19 03:16:56;;;;;;;31.93;16.90;;;4.40;99.90;;;;;;5037376;28;20204;-42
2022/01/19 03:19:25;;;;;;;30.67;15.03;;;4.40;99.90;;;;;;5042021;28;20277;-43
2022/01/19 03:21:52;;;;;;;28.80;14.80;;;4.40;99.90;;;;;;5049186;28;20276;-44
2022/01/19 03:24:19;;;;;;;27.97;14.97;;;4.40;99.90;;;;;;5058495;28;20227;-46
2022/01/19 03:26:47;;;;;;;23.37;11.80;;;4.40;99.90;;;;;;5050583;28;20195;-44
2022/01/19 03:29:21;;;;;;;33.50;15.17;;;4.40;99.90;;;;;;5048491;28;20221;-47
2022/01/19 03:31:47;;;;;;;32.90;14.17;;;4.40;99.90;;;;;;5045090;28;20206;-42
2022/01/19 03:34:16;;;;;;;29.43;14.83;;;4.40;99.90;;;;;;5051537;28;20556;-47
2022/01/19 03:36:45;;;;;;;31.40;14.80;;;4.40;99.90;;;;;;5037628;28;20286;-45
2022/01/19 03:39:14;;;;;;;24.37;13.30;;;4.40;99.90;;;;;;5042163;28;20249;-43
2022/01/19 03:41:41;;;;;;;29.73;14.10;;;4.40;99.90;;;;;;5052947;28;20217;-44
2022/01/19 03:44:10;;;;;;;24.93;13.10;;;4.40;99.90;;;;;;5060427;28;20766;-44
2022/01/19 03:46:46;;;;;;;27.50;13.47;;;4.40;99.90;;;;;;5039000;28;20203;-42
2022/01/19 03:49:21;;;;;;;27.20;11.53;;;4.40;99.90;;;;;;5048291;28;20757;-47
2022/01/19 03:51:48;;;;;;;29.70;13.23;;;4.40;99.90;;;;;;5048973;28;20201;-46
2022/01/19 03:54:14;;;;;;;27.87;12.77;;;4.30;99.90;;;;;;5043593;28;20206;-41
2022/01/19 03:56:41;;;;;;;26.80;12.87;;;4.30;99.90;;;;;;5041032;28;20211;-44
2022/01/19 03:59:09;;;;;;;27.73;12.67;;;4.30;99.90;;;;;;5051660;28;20207;-42
2022/01/19 04:01:36;;;;;;;22.77;11.23;;;4.30;99.90;;;;;;5046359;28;20213;-43
2022/01/19 04:06:58;;;;;;;27.20;11.60;;;4.30;99.90;;;;;;5038682;28;20833;-42
2022/01/19 04:09:26;;;;;;;25.77;11.93;;;4.40;99.90;;;;;;5048360;28;20269;-44
2022/01/19 04:11:54;;;;;;;27.53;12.23;;;4.40;99.90;;;;;;5051111;28;20203;-43
2022/01/19 04:14:22;;;;;;;24.50;11.93;;;4.40;99.90;;;;;;5055887;28;20214;-47
2022/01/19 04:16:50;;;;;;;26.03;11.77;;;4.40;99.90;;;;;;5037088;28;20202;-43
2022/01/19 04:19:26;;;;;;;26.93;12.43;;;4.40;99.90;;;;;;5043389;28;20207;-43
2022/01/19 04:22:18;;;;;;;25.23;11.40;;;4.40;99.90;;;;;;5048126;28;20230;-43
2022/01/19 04:24:47;;;;;;;28.10;10.97;;;4.30;99.90;;;;;;5052494;28;20241;-47
2022/01/19 04:27:33;;;;;;;25.57;13.53;;;4.30;99.90;;;;;;5042127;28;20206;-44
2022/01/19 04:30:06;;;;;;;30.23;12.93;;;4.30;99.90;;;;;;5060002;28;20321;-48
2022/01/19 04:32:44;;;;;;;29.17;12.83;;;4.30;99.90;;;;;;5047399;28;20581;-44
2022/01/19 04:35:15;;;;;;;24.23;12.47;;;4.30;99.90;;;;;;5042432;28;20245;-47
2022/01/19 04:38:13;;;;;;;31.03;15.30;;;4.30;99.90;;;;;;5054262;28;20203;-46
2022/01/19 04:46:57;;;;;;;21.90;10.87;;;4.30;99.90;;;;;;5042134;28;20705;-42
2022/01/19 05:01:33;;;;;;;26.43;11.73;;;4.30;99.90;;;;;;5064315;28;20218;-42
2022/01/19 05:03:38;;;;;;;21.23;11.43;;;4.20;99.90;;;;;;5057018;28;20853;-42
2022/01/19 05:06:12;;;;;;;35.90;13.13;;;4.20;99.90;;;;;;5043571;28;20309;-46
2022/01/19 05:08:54;;;;;;;29.30;12.60;;;4.20;99.90;;;;;;5056314;28;20199;-44
2022/01/19 05:14:06;;;;;;;26.30;12.30;;;4.20;99.90;;;;;;5047911;28;20349;-44
2022/01/19 05:16:34;;;;;;;27.93;12.63;;;4.20;99.90;;;;;;5049495;28;20199;-44
2022/01/19 05:19:03;;;;;;;25.13;12.03;;;4.20;99.90;;;;;;5047250;28;20208;-42
2022/01/19 05:21:32;;;;;;;23.97;11.73;;;4.20;99.90;;;;;;5040572;28;20206;-44
2022/01/19 05:24:19;;;;;;;30.80;13.63;;;4.20;99.90;;;;;;5048453;28;20254;-47
2022/01/19 05:27:08;;;;;;;29.43;12.03;;;4.20;99.90;;;;;;5047222;28;20199;-44
2022/01/19 05:29:36;;;;;;;31.97;13.17;;;4.20;99.90;;;;;;5054899;28;20215;-42
2022/01/19 05:32:06;;;;;;;24.37;12.40;;;4.10;99.90;;;;;;5048331;28;20569;-42
2022/01/19 05:34:34;;;;;;;22.73;10.27;;;4.10;99.90;;;;;;5053695;28;20227;-42
2022/01/19 05:37:19;;;;;;;27.77;12.53;;;4.10;99.90;;;;;;5037642;28;21048;-46
2022/01/19 05:40:16;;;;;;;61.70;18.63;;;4.10;99.90;;;;;;5046014;28;20671;-42
2022/01/19 05:42:57;;;;;;;29.37;11.90;;;4.10;99.90;;;;;;5049056;28;20523;-45
2022/01/19 05:45:26;;;;;;;47.07;15.93;;;4.10;99.90;;;;;;5048296;28;20279;-47
2022/01/19 05:47:54;;;;;;;39.00;12.40;;;4.10;99.90;;;;;;5049934;28;20234;-42
2022/01/19 05:50:22;;;;;;;35.17;12.83;;;4.10;99.90;;;;;;5043112;28;20968;-42
2022/01/19 05:53:00;;;;;;;30.73;13.80;;;4.10;99.90;;;;;;5042642;28;20424;-44
2022/01/19 05:55:27;;;;;;;58.10;14.97;;;4.10;99.90;;;;;;5051397;28;20269;-45
2022/01/19 05:57:54;;;;;;;32.63;12.93;;;4.10;99.90;;;;;;5049667;28;20208;-43
2022/01/19 06:00:21;;;;;;;28.30;11.90;;;4.10;99.90;;;;;;5050115;28;20221;-42
2022/01/19 06:02:52;;;;;;;33.33;11.87;;;4.10;99.90;;;;;;5039325;28;20198;-45
2022/01/19 06:05:27;;;;;;;30.30;11.77;;;4.10;99.90;;;;;;5043839;28;20229;-44
2022/01/19 06:08:39;;;;;;;32.73;12.27;;;4.10;99.90;;;;;;5044004;28;20683;-41
2022/01/19 06:11:06;;;;;;;40.87;13.00;;;4.10;99.90;;;;;;5048792;28;20222;-42
2022/01/19 06:13:32;;;;;;;29.73;11.70;;;4.10;99.90;;;;;;5051340;28;20191;-43
2022/01/19 06:16:00;;;;;;;23.00;9.60;;;4.10;99.90;;;;;;5051672;28;20346;-43
2022/01/19 06:18:26;;;;;;;37.97;14.03;;;4.10;99.90;;;;;;5050691;28;20203;-42
2022/01/19 06:20:55;;;;;;;27.70;12.67;;;4.10;99.90;;;;;;5045573;28;20252;-42
2022/01/19 06:23:27;;;;;;;32.83;12.43;;;4.10;99.90;;;;;;5037114;28;20613;-42
2022/01/19 06:26:06;;;;;;;28.57;12.60;;;4.10;99.90;;;;;;5051382;28;20223;-43
2022/01/19 06:28:34;;;;;;;44.00;17.50;;;4.10;99.90;;;;;;5054420;28;20203;-41
2022/01/19 06:31:01;;;;;;;34.33;12.93;;;4.10;99.90;;;;;;5053205;28;20559;-41
2022/01/19 06:33:29;;;;;;;50.13;15.77;;;4.10;99.90;;;;;;5046605;28;20203;-41
2022/01/19 06:35:57;;;;;;;40.30;16.63;;;4.20;99.90;;;;;;5043239;28;20226;-41
2022/01/19 06:38:35;;;;;;;47.10;17.03;;;4.20;99.90;;;;;;5042844;28;20301;-41
2022/01/19 06:41:10;;;;;;;53.43;19.03;;;4.20;99.90;;;;;;5047589;28;20209;-41
2022/01/19 06:43:39;;;;;;;47.73;18.93;;;4.20;99.90;;;;;;5045653;28;20203;-41
2022/01/19 06:46:06;;;;;;;39.50;17.97;;;4.20;99.90;;;;;;5054631;28;20309;-42
2022/01/19 06:48:33;;;;;;;33.33;15.17;;;4.20;99.90;;;;;;5037573;28;20191;-41
2022/01/19 06:51:04;;;;;;;47.37;17.77;;;4.20;99.90;;;;;;5048990;28;20703;-43
2022/01/19 06:53:42;;;;;;;38.37;16.90;;;4.30;99.90;;;;;;5033609;28;21213;-42
2022/01/19 06:56:16;;;;;;;35.60;16.23;;;4.30;99.90;;;;;;5049184;28;20782;-41
2022/01/19 06:58:43;;;;;;;48.40;18.90;;;4.30;99.90;;;;;;5048811;28;20191;-43
2022/01/19 07:01:39;;;;;;;45.93;16.50;;;4.30;99.90;;;;;;5028338;28;22858;-42
2022/01/19 07:04:29;;;;;;;40.07;16.97;;;4.40;99.90;;;;;;5044889;28;20223;-42
2022/01/19 07:06:57;;;;;;;38.90;17.83;;;4.40;99.90;;;;;;5043154;28;20290;-41
2022/01/19 07:09:35;;;;;;;39.20;18.50;;;4.50;99.90;;;;;;5039849;28;20940;-41
2022/01/19 07:12:02;;;;;;;57.60;20.27;;;4.50;99.90;;;;;;5053392;28;20239;-43
2022/01/19 07:14:31;;;;;;;42.83;17.67;;;4.50;99.90;;;;;;5040883;28;20206;-42
2022/01/19 07:16:59;;;;;;;43.47;18.70;;;4.50;99.90;;;;;;5061195;28;20699;-41
2022/01/19 07:19:26;;;;;;;41.50;19.20;;;4.50;99.90;;;;;;5046136;28;20672;-43
2022/01/19 07:21:52;;;;;;;40.23;19.77;;;4.60;99.90;;;;;;5045609;28;20209;-44
2022/01/19 07:24:21;;;;;;;48.57;20.70;;;4.60;99.90;;;;;;5037227;28;20268;-42
2022/01/19 07:26:47;;;;;;;44.63;18.67;;;4.60;99.90;;;;;;5055108;28;20308;-41
2022/01/19 07:29:17;;;;;;;36.27;14.80;;;4.60;99.90;;;;;;5059663;28;20579;-41
2022/01/19 07:31:51;;;;;;;45.73;20.47;;;4.60;99.90;;;;;;5050344;28;20218;-41
2022/01/19 07:34:19;;;;;;;43.17;21.83;;;4.60;99.90;;;;;;5056542;28;20290;-44
2022/01/19 07:36:46;;;;;;;57.73;24.07;;;4.60;99.90;;;;;;5040825;28;20203;-41
2022/01/19 07:39:14;;;;;;;50.17;21.70;;;4.60;99.90;;;;;;5043009;28;20203;-42
2022/01/19 07:41:42;;;;;;;51.27;22.40;;;4.60;99.90;;;;;;5037713;28;20201;-42
2022/01/19 07:44:27;;;;;;;42.67;19.87;;;4.70;99.90;;;;;;5045527;28;20225;-41
2022/01/19 07:47:13;;;;;;;47.83;20.53;;;4.70;99.90;;;;;;5047121;28;20252;-43
2022/01/19 07:50:04;;;;;;;47.57;20.97;;;4.70;99.90;;;;;;5046826;28;20663;-42
2022/01/19 07:52:40;;;;;;;53.60;22.93;;;4.70;99.90;;;;;;5047306;28;20917;-41
2022/01/19 07:55:17;;;;;;;44.67;18.67;;;4.70;99.90;;;;;;5041631;28;20218;-41
2022/01/19 07:58:05;;;;;;;45.53;21.43;;;4.70;99.90;;;;;;5053428;28;20289;-43
2022/01/19 08:00:36;;;;;;;40.33;21.63;;;4.70;99.90;;;;;;5040837;28;20241;-43
2022/01/19 08:03:23;;;;;;;45.90;21.63;;;4.70;99.90;;;;;;5046946;28;20203;-41
2022/01/19 08:05:59;;;;;;;48.23;22.33;;;4.70;99.90;;;;;;5051088;28;20218;-43
2022/01/19 08:08:27;;;;;;;47.00;22.57;;;4.70;99.90;;;;;;5040623;28;20337;-41
2022/01/19 08:10:54;;;;;;;48.97;23.60;;;4.70;99.90;;;;;;5043599;28;20214;-43
2022/01/19 08:13:22;;;;;;;53.53;23.47;;;4.80;99.90;;;;;;5051975;28;20203;-41
2022/01/19 08:15:51;;;;;;;52.83;21.13;;;4.70;99.90;;;;;;5050132;28;20683;-42
2022/01/19 08:18:18;;;;;;;43.80;21.50;;;4.70;99.90;;;;;;5039088;28;20210;-43
2022/01/19 08:20:45;;;;;;;45.93;22.37;;;4.70;99.90;;;;;;5059152;28;20201;-43
2022/01/19 08:23:14;;;;;;;50.90;23.00;;;4.70;99.90;;;;;;5049628;28;20199;-41
2022/01/19 08:25:53;;;;;;;53.50;20.77;;;4.70;99.90;;;;;;5046548;28;20221;-41
2022/01/19 08:28:22;;;;;;;44.13;19.80;;;4.70;99.90;;;;;;5038223;28;20211;-43
2022/01/19 08:30:49;;;;;;;47.70;23.90;;;4.70;99.90;;;;;;5054464;28;20226;-42
2022/01/19 08:33:31;;;;;;;36.87;20.30;;;4.70;99.90;;;;;;5058027;28;20953;-42
2022/01/19 08:36:02;;;;;;;45.67;23.20;;;4.70;99.90;;;;;;5049243;28;20215;-44
2022/01/19 08:38:36;;;;;;;42.13;20.57;;;4.70;99.90;;;;;;5047084;28;20205;-41
2022/01/19 08:41:11;;;;;;;50.07;23.37;;;4.70;99.90;;;;;;5053860;28;20674;-42
2022/01/19 08:43:40;;;;;;;45.27;22.37;;;4.70;99.90;;;;;;5040951;28;20203;-41
2022/01/19 08:46:07;;;;;;;56.97;25.57;;;4.70;99.90;;;;;;5059484;28;20309;-41
2022/01/19 08:48:51;;;;;;;47.30;23.07;;;4.70;99.90;;;;;;5056122;28;20735;-46
2022/01/19 08:51:53;;;;;;;29.70;17.00;;;4.70;99.90;;;;;;5037092;28;20259;-41
2022/01/19 08:54:26;;;;;;;39.13;21.00;;;4.70;99.90;;;;;;5045522;28;20227;-41
2022/01/19 08:57:05;;;;;;;42.00;20.33;;;4.60;99.90;;;;;;5043045;28;20215;-43
2022/01/19 08:59:34;;;;;;;40.00;19.17;;;4.60;99.90;;;;;;5039217;28;20202;-41
2022/01/19 09:02:01;;;;;;;42.73;23.13;;;4.60;99.90;;;;;;5063441;28;20248;-42
2022/01/19 09:04:28;;;;;;;41.07;20.73;;;4.60;99.90;;;;;;5059288;28;20214;-41
2022/01/19 09:06:55;;;;;;;50.97;23.53;;;4.60;99.90;;;;;;5062458;28;20201;-41
2022/01/19 09:09:22;;;;;;;53.23;22.77;;;4.70;99.90;;;;;;5054554;28;20622;-41
2022/01/19 09:11:49;;;;;;;43.20;23.10;;;4.70;99.90;;;;;;5055731;28;21012;-41
2022/01/19 09:14:16;;;;;;;48.60;22.87;;;4.70;99.90;;;;;;5051198;28;20718;-41
2022/01/19 09:16:49;;;;;;;44.70;22.63;;;4.70;99.90;;;;;;5059176;28;20199;-41
2022/01/19 09:19:16;;;;;;;47.43;23.37;;;4.70;99.90;;;;;;5059331;28;20211;-43
2022/01/19 09:21:43;;;;;;;44.43;22.13;;;4.60;99.90;;;;;;5054982;28;20909;-41
2022/01/19 09:24:10;;;;;;;59.63;26.13;;;4.70;99.90;;;;;;5047616;28;20210;-41
2022/01/19 09:26:37;;;;;;;48.57;24.20;;;4.70;99.90;;;;;;5045629;28;20278;-43
2022/01/19 09:29:04;;;;;;;52.70;24.73;;;4.70;99.90;;;;;;5043153;28;20214;-41
2022/01/19 09:31:33;;;;;;;41.73;21.83;;;4.70;99.90;;;;;;5052802;28;20802;-43
2022/01/19 09:34:08;;;;;;;54.97;26.87;;;4.80;99.90;;;;;;5049134;28;20210;-41
2022/01/19 09:36:43;;;;;;;49.57;24.30;;;4.80;99.90;;;;;;5051420;28;20191;-41
2022/01/19 09:39:11;;;;;;;44.77;23.23;;;4.80;99.90;;;;;;5062802;28;20206;-41
2022/01/19 09:41:38;;;;;;;51.13;23.43;;;4.80;99.90;;;;;;5055442;28;20183;-43
2022/01/19 09:44:07;;;;;;;60.40;25.50;;;4.80;99.90;;;;;;5051815;28;20207;-45
2022/01/19 09:46:35;;;;;;;53.90;23.00;;;4.80;99.90;;;;;;5043721;28;20230;-43
2022/01/19 09:49:06;;;;;;;45.77;23.07;;;4.90;99.90;;;;;;5061255;28;20656;-41
2022/01/19 09:51:33;;;;;;;45.80;22.00;;;4.90;99.90;;;;;;5050675;28;20210;-41
2022/01/19 09:54:00;;;;;;;44.43;22.53;;;4.90;99.90;;;;;;5051972;28;20218;-43
2022/01/19 09:56:27;;;;;;;42.07;21.73;;;4.90;99.90;;;;;;5045429;28;20234;-41
2022/01/19 09:58:54;;;;;;;54.70;23.60;;;4.90;99.90;;;;;;5052568;28;20621;-42
2022/01/19 10:01:22;;;;;;;49.07;24.97;;;4.90;99.90;;;;;;5043280;28;20202;-45
2022/01/19 10:03:49;;;;;;;69.50;26.97;;;4.90;99.90;;;;;;5050833;28;20292;-41
2022/01/19 10:06:18;;;;;;;49.30;23.07;;;5.00;99.90;;;;;;5048594;28;20225;-42
2022/01/19 10:08:47;;;;;;;49.60;22.90;;;5.00;99.90;;;;;;5055067;28;20262;-42
2022/01/19 10:11:21;;;;;;;43.13;23.40;;;5.00;99.90;;;;;;5049908;28;20223;-42
2022/01/19 10:17:02;;;;;;;47.03;21.57;;;5.00;99.90;;;;;;5032215;28;20255;-43
2022/01/19 10:19:31;;;;;;;45.97;21.23;;;5.00;99.90;;;;;;5050585;28;20212;-41
2022/01/19 10:22:12;;;;;;;43.33;21.73;;;5.00;99.90;;;;;;5056249;28;20249;-41
2022/01/19 10:24:50;;;;;;;48.63;22.77;;;5.00;99.90;;;;;;5052299;28;20273;-43
2022/01/19 10:27:37;;;;;;;43.97;21.87;;;5.10;99.90;;;;;;5041891;28;20632;-41
2022/01/19 10:30:17;;;;;;;41.00;21.70;;;5.10;99.90;;;;;;5043742;28;20206;-42
2022/01/19 10:32:48;;;;;;;41.23;22.37;;;5.10;99.90;;;;;;5048731;28;20210;-44
2022/01/19 10:35:17;;;;;;;54.10;22.77;;;5.10;99.90;;;;;;5056966;28;20226;-41
2022/01/19 10:37:47;;;;;;;39.60;18.47;;;5.10;99.90;;;;;;5053477;28;20249;-41
2022/01/19 10:40:17;;;;;;;28.87;16.47;;;5.10;99.90;;;;;;5047913;28;20538;-43
2022/01/19 10:42:44;;;;;;;36.80;17.40;;;5.10;99.90;;;;;;5047677;28;20187;-41
2022/01/19 10:45:12;;;;;;;46.43;23.33;;;5.10;99.90;;;;;;5044794;28;20226;-41
2022/01/19 10:47:46;;;;;;;56.67;24.57;;;5.10;99.90;;;;;;5042269;28;20788;-41
2022/01/19 10:50:14;;;;;;;35.57;20.40;;;5.10;99.90;;;;;;5047877;28;20194;-41
2022/01/19 10:52:43;;;;;;;35.10;18.93;;;5.10;99.90;;;;;;5050412;28;20210;-43
2022/01/19 10:55:14;;;;;;;39.97;20.37;;;5.10;99.90;;;;;;5042112;28;21132;-44
2022/01/19 10:57:42;;;;;;;38.87;18.73;;;5.10;99.90;;;;;;5051841;28;20572;-44
2022/01/19 11:00:15;;;;;;;41.37;21.40;;;5.10;99.90;;;;;;5053590;28;20187;-43
2022/01/19 11:02:43;;;;;;;39.77;17.90;;;5.10;99.90;;;;;;5034335;28;20326;-42
2022/01/19 11:05:11;;;;;;;35.73;19.50;;;5.10;99.90;;;;;;5050014;28;20277;-43
2022/01/19 11:07:38;;;;;;;38.47;21.20;;;5.00;99.90;;;;;;5052721;28;20210;-44
2022/01/19 11:10:10;;;;;;;39.63;21.33;;;5.00;99.90;;;;;;5045580;28;20219;-43
2022/01/19 11:12:45;;;;;;;37.17;22.77;;;4.90;99.90;;;;;;5043004;28;20577;-44
2022/01/19 11:15:14;;;;;;;42.50;20.93;;;5.00;99.90;;;;;;5054070;28;20226;-43
2022/01/19 11:17:41;;;;;;;43.37;23.83;;;5.00;99.90;;;;;;5041246;28;20289;-43
2022/01/19 11:20:11;;;;;;;53.27;25.33;;;4.90;99.90;;;;;;5049976;28;20199;-45
2022/01/19 11:22:52;;;;;;;39.80;23.97;;;4.90;99.90;;;;;;5057573;28;20609;-44
2022/01/19 11:25:27;;;;;;;52.90;24.50;;;4.90;99.90;;;;;;5056148;28;20222;-43
2022/01/19 11:27:55;;;;;;;55.57;25.27;;;4.90;99.90;;;;;;5038658;28;20204;-43
2022/01/19 11:30:24;;;;;;;62.83;26.83;;;4.90;99.90;;;;;;5050813;28;20204;-43
2022/01/19 11:33:17;;;;;;;50.13;25.57;;;4.90;99.90;;;;;;5034593;28;20210;-42
2022/01/19 11:35:47;;;;;;;44.30;22.50;;;4.90;99.90;;;;;;5048927;28;20215;-44
2022/01/19 11:38:38;;;;;;;53.33;26.70;;;4.80;99.90;;;;;;5057712;28;20203;-43
2022/01/19 11:41:39;;;;;;;47.33;23.27;;;4.80;99.90;;;;;;5040276;28;20276;-44
2022/01/19 11:44:10;;;;;;;49.47;25.47;;;4.70;99.90;;;;;;5042260;28;20349;-42
2022/01/19 11:46:40;;;;;;;54.63;27.93;;;4.70;99.90;;;;;;5048260;28;20207;-44
2022/01/19 11:49:09;;;;;;;49.00;24.93;;;4.70;99.90;;;;;;5039303;28;20206;-46
2022/01/19 11:51:38;;;;;;;54.17;28.00;;;4.70;99.90;;;;;;5046184;28;20214;-44
2022/01/19 11:54:12;;;;;;;59.87;26.33;;;4.60;99.90;;;;;;5039171;28;20207;-42
2022/01/19 11:57:07;;;;;;;46.97;22.13;;;4.70;99.90;;;;;;5047860;28;20195;-45
2022/01/19 12:00:10;;;;;;;55.90;26.03;;;4.60;99.90;;;;;;5047701;28;20218;-44
2022/01/19 12:02:43;;;;;;;43.93;22.87;;;4.50;99.90;;;;;;5050279;28;20703;-42
2022/01/19 12:05:30;;;;;;;47.07;23.83;;;4.40;99.90;;;;;;5046194;28;20730;-43
2022/01/19 12:07:59;;;;;;;56.23;24.57;;;4.40;99.90;;;;;;5055644;28;20739;-43
2022/01/19 12:10:48;;;;;;;50.97;23.30;;;4.40;99.90;;;;;;5047673;28;20286;-42
2022/01/19 12:13:32;;;;;;;56.33;26.10;;;4.40;99.90;;;;;;5053106;28;20225;-44
2022/01/19 12:16:05;;;;;;;48.93;25.10;;;4.40;99.90;;;;;;5050363;28;20747;-42
2022/01/19 12:18:47;;;;;;;39.10;22.37;;;4.40;99.90;;;;;;5043241;28;22144;-45
2022/01/19 12:21:35;;;;;;;40.17;21.70;;;4.40;99.90;;;;;;5054389;28;20252;-43
2022/01/19 12:24:15;;;;;;;46.70;22.83;;;4.30;99.90;;;;;;5044604;28;20211;-46
2022/01/19 12:26:57;;;;;;;46.40;23.80;;;4.30;99.90;;;;;;5049987;28;20203;-43
2022/01/19 12:29:49;;;;;;;46.90;23.10;;;4.30;99.90;;;;;;5050257;28;20193;-42
2022/01/19 12:32:46;;;;;;;64.03;25.53;;;4.30;99.90;;;;;;5029460;28;20227;-44
2022/01/19 12:35:16;;;;;;;49.50;24.00;;;4.30;99.90;;;;;;5009701;28;20556;-45
2022/01/19 12:37:46;;;;;;;46.57;24.63;;;4.30;99.90;;;;;;5050919;28;20594;-45
2022/01/19 12:40:45;;;;;;;55.17;25.67;;;4.30;99.90;;;;;;5063173;28;20203;-45
2022/01/19 12:43:29;;;;;;;51.63;23.90;;;4.30;99.90;;;;;;5037846;28;20207;-44
2022/01/19 12:45:56;;;;;;;43.13;23.20;;;4.30;99.90;;;;;;5052492;28;20643;-42
2022/01/19 12:48:37;;;;;;;42.70;21.10;;;4.30;99.90;;;;;;5048510;28;23033;-45
2022/01/19 12:51:04;;;;;;;46.60;24.07;;;4.30;99.90;;;;;;5039641;28;20199;-43
2022/01/19 12:53:31;;;;;;;42.17;23.03;;;4.30;99.90;;;;;;5052160;28;20312;-43
2022/01/19 12:56:01;;;;;;;47.93;23.63;;;4.30;99.90;;;;;;5052257;28;20211;-43
2022/01/19 12:58:32;;;;;;;48.20;23.43;;;4.30;99.90;;;;;;5049924;28;20278;-44
2022/01/19 13:01:01;;;;;;;51.30;24.30;;;4.30;99.90;;;;;;5054401;28;20196;-43
2022/01/19 13:03:31;;;;;;;43.83;24.50;;;4.30;99.90;;;;;;5047554;28;20456;-45
2022/01/19 13:06:02;;;;;;;43.73;23.33;;;4.30;99.90;;;;;;5040926;28;20297;-45
2022/01/19 13:08:37;;;;;;;46.53;23.77;;;4.40;99.90;;;;;;5043033;28;20278;-44
2022/01/19 13:11:19;;;;;;;49.77;24.87;;;4.40;99.90;;;;;;5045306;28;20686;-43
2022/01/19 13:13:59;;;;;;;46.30;24.33;;;4.40;99.90;;;;;;5048451;28;20238;-43
2022/01/19 13:16:38;;;;;;;41.80;24.00;;;4.40;99.90;;;;;;5048090;28;20219;-42
2022/01/19 13:19:11;;;;;;;41.87;22.97;;;4.40;99.90;;;;;;5050360;28;20196;-43
2022/01/19 13:21:40;;;;;;;44.27;23.17;;;4.40;99.90;;;;;;5046066;28;20210;-45
2022/01/19 13:24:12;;;;;;;42.47;23.77;;;4.40;99.90;;;;;;5046002;28;21350;-42
2022/01/19 13:26:42;;;;;;;33.73;20.03;;;4.40;99.90;;;;;;5052387;28;20203;-44
2022/01/19 13:29:21;;;;;;;54.77;25.67;;;4.40;99.90;;;;;;5046796;28;20207;-44
2022/01/19 13:32:02;;;;;;;42.77;23.00;;;4.40;99.90;;;;;;5044700;28;20211;-42
2022/01/19 13:34:31;;;;;;;60.90;25.53;;;4.40;99.90;;;;;;5048148;28;20203;-45
2022/01/19 13:37:01;;;;;;;48.67;25.80;;;4.50;99.90;;;;;;5052376;28;20652;-45
2022/01/19 13:39:31;;;;;;;50.10;25.27;;;4.50;99.90;;;;;;5040773;28;20200;-44
2022/01/19 13:42:00;;;;;;;40.83;22.43;;;4.50;99.90;;;;;;5038770;28;20210;-44
2022/01/19 13:44:33;;;;;;;39.83;23.17;;;4.50;99.90;;;;;;5043744;28;20768;-44
2022/01/19 13:47:15;;;;;;;43.90;24.90;;;4.50;99.90;;;;;;5057908;28;20222;-45
2022/01/19 13:49:51;;;;;;;49.40;27.53;;;4.50;99.90;;;;;;5053363;28;20198;-45
2022/01/19 13:52:23;;;;;;;54.73;26.57;;;4.50;99.90;;;;;;5044434;28;20214;-44
2022/01/19 13:54:50;;;;;;;45.10;23.67;;;4.50;99.90;;;;;;5047307;28;20225;-45
2022/01/19 13:57:27;;;;;;;36.33;21.37;;;4.60;99.90;;;;;;5050783;28;20216;-45
2022/01/19 13:59:53;;;;;;;44.73;24.33;;;4.60;99.90;;;;;;5049077;28;20210;-43
2022/01/19 14:02:21;;;;;;;45.43;24.23;;;4.60;99.90;;;;;;5045592;28;20188;-45
2022/01/19 14:04:53;;;;;;;45.73;25.67;;;4.60;99.90;;;;;;5046991;28;20250;-44
2022/01/19 14:07:22;;;;;;;48.27;24.30;;;4.60;99.90;;;;;;5052991;28;20322;-46